Time;durP1;ratioP1;P1;durP2;ratioP2;P2;SDS_P1;SDS_P2;PMS_P1;PMS_P2;Temp;Humidity;BMP_temperature;BMP_pressure;BME280_temperature;BME280_humidity;BME280_pressure;Samples;Min_cycle;Max_cycle;Signal;HPM_P1;HPM_P2
2022/08/31 00:05:10;;;;;;;13.38;8.60;;;;;;;;;;4953871;29;20062;-78
2022/08/31 00:07:35;;;;;;;16.15;9.38;;;;;;;;;;4953434;29;20031;-78
2022/08/31 00:10:12;;;;;;;13.45;9.15;;;;;;;;;;4955813;28;20494;-77
2022/08/31 00:12:38;;;;;;;15.82;9.18;;;;;;;;;;4924887;29;20487;-78
2022/08/31 00:15:04;;;;;;;13.43;9.15;;;;;;;;;;4925496;29;20062;-78
2022/08/31 00:17:30;;;;;;;14.90;9.50;;;;;;;;;;4957440;29;21281;-76
2022/08/31 00:19:55;;;;;;;11.68;9.20;;;;;;;;;;4956815;29;20023;-76
2022/08/31 00:22:21;;;;;;;13.82;9.38;;;;;;;;;;4940788;29;20156;-75
2022/08/31 00:24:46;;;;;;;16.58;9.48;;;;;;;;;;4924274;29;20035;-76
2022/08/31 00:27:14;;;;;;;16.25;9.40;;;;;;;;;;4940408;29;20537;-77
2022/08/31 00:29:39;;;;;;;16.95;9.63;;;;;;;;;;4936806;29;20480;-77
2022/08/31 00:32:05;;;;;;;13.30;9.50;;;;;;;;;;4949305;29;20054;-77
2022/08/31 00:34:31;;;;;;;15.25;9.50;;;;;;;;;;4956629;29;20030;-77
2022/08/31 00:36:58;;;;;;;16.35;9.82;;;;;;;;;;4924404;29;20410;-77
2022/08/31 00:39:24;;;;;;;13.20;9.68;;;;;;;;;;4939521;29;20027;-77
2022/08/31 00:41:49;;;;;;;14.23;9.68;;;;;;;;;;4932390;29;20046;-77
2022/08/31 00:44:15;;;;;;;16.20;9.70;;;;;;;;;;4939719;29;20094;-77
2022/08/31 00:46:41;;;;;;;14.68;9.73;;;;;;;;;;4956749;29;20117;-77
2022/08/31 00:49:07;;;;;;;13.63;9.82;;;;;;;;;;4928340;29;20029;-77
2022/08/31 00:51:35;;;;;;;12.05;9.43;;;;;;;;;;4943991;29;20047;-77
2022/08/31 00:54:01;;;;;;;16.25;10.20;;;;;;;;;;4929023;29;20391;-75
2022/08/31 00:56:26;;;;;;;13.35;9.63;;;;;;;;;;4938653;29;20039;-76
2022/08/31 00:58:52;;;;;;;16.75;10.50;;;;;;;;;;4944947;29;20078;-76
2022/08/31 01:01:19;;;;;;;13.25;9.63;;;;;;;;;;4939595;29;20089;-78
2022/08/31 01:03:45;;;;;;;13.10;9.85;;;;;;;;;;4919966;29;20032;-77
2022/08/31 01:06:11;;;;;;;12.68;9.93;;;;;;;;;;4920597;29;20089;-77
2022/08/31 01:08:37;;;;;;;17.73;10.05;;;;;;;;;;4922708;29;20022;-76
2022/08/31 01:11:03;;;;;;;14.40;9.73;;;;;;;;;;4931365;29;20050;-76
2022/08/31 01:13:28;;;;;;;16.40;11.15;;;;;;;;;;4921553;29;20560;-76
2022/08/31 01:15:55;;;;;;;12.38;9.80;;;;;;;;;;4937866;29;20031;-76
2022/08/31 01:18:22;;;;;;;17.67;10.35;;;;;;;;;;4923353;29;20027;-77
2022/08/31 01:20:59;;;;;;;14.15;10.13;;;;;;;;;;4935178;29;20398;-76
2022/08/31 01:23:30;;;;;;;13.07;9.60;;;;;;;;;;4936943;29;20055;-76
2022/08/31 01:25:56;;;;;;;14.07;10.32;;;;;;;;;;4938297;29;20043;-76
2022/08/31 01:28:21;;;;;;;14.32;10.32;;;;;;;;;;4954675;29;20174;-77
2022/08/31 01:31:05;;;;;;;12.23;9.40;;;;;;;;;;4927600;29;20027;-77
2022/08/31 01:33:31;;;;;;;14.57;9.95;;;;;;;;;;4939193;29;20032;-77
2022/08/31 01:35:57;;;;;;;12.23;9.75;;;;;;;;;;4936875;29;20577;-76
2022/08/31 01:38:22;;;;;;;15.05;9.50;;;;;;;;;;4923069;28;20121;-78
2022/08/31 01:40:49;;;;;;;14.23;9.52;;;;;;;;;;4938723;29;20055;-76
2022/08/31 01:43:15;;;;;;;12.48;8.90;;;;;;;;;;4916806;29;20427;-77
2022/08/31 01:45:40;;;;;;;12.82;9.00;;;;;;;;;;4933680;29;20118;-76
2022/08/31 01:48:06;;;;;;;14.50;10.07;;;;;;;;;;4922582;29;20047;-77
2022/08/31 01:50:31;;;;;;;14.85;9.55;;;;;;;;;;4949481;29;20102;-77
2022/08/31 01:52:58;;;;;;;13.73;9.50;;;;;;;;;;4937870;29;20039;-77
2022/08/31 01:55:23;;;;;;;10.45;8.30;;;;;;;;;;4934411;29;20058;-77
2022/08/31 01:57:49;;;;;;;13.82;8.55;;;;;;;;;;4943861;29;20051;-76
2022/08/31 02:00:40;;;;;;;18.10;8.75;;;;;;;;;;4921276;29;20035;-77
2022/08/31 02:03:06;;;;;;;11.40;8.10;;;;;;;;;;4922429;29;20042;-75
2022/08/31 02:05:35;;;;;;;11.02;7.82;;;;;;;;;;4941704;29;20427;-77
2022/08/31 02:08:01;;;;;;;13.70;7.75;;;;;;;;;;4938439;29;20054;-78
2022/08/31 02:10:28;;;;;;;9.75;6.95;;;;;;;;;;4938602;29;20030;-78
2022/08/31 02:12:54;;;;;;;12.55;7.25;;;;;;;;;;4922669;29;20138;-78
2022/08/31 02:15:27;;;;;;;11.73;7.10;;;;;;;;;;4935231;29;20099;-77
2022/08/31 02:17:53;;;;;;;13.02;7.55;;;;;;;;;;4934591;29;20060;-77
2022/08/31 02:20:19;;;;;;;10.63;7.32;;;;;;;;;;4951995;29;20019;-77
2022/08/31 02:22:46;;;;;;;11.70;7.03;;;;;;;;;;4938177;29;20043;-76
2022/08/31 02:25:11;;;;;;;10.10;7.15;;;;;;;;;;4923553;29;20141;-77
2022/08/31 02:27:37;;;;;;;8.65;7.03;;;;;;;;;;4934796;29;20118;-77
2022/08/31 02:30:07;;;;;;;8.18;6.45;;;;;;;;;;4918555;29;20145;-78
2022/08/31 02:32:32;;;;;;;10.07;6.75;;;;;;;;;;4937514;29;20083;-77
2022/08/31 02:34:58;;;;;;;10.45;6.53;;;;;;;;;;4908315;29;20043;-76
2022/08/31 02:37:23;;;;;;;9.57;6.97;;;;;;;;;;4922081;29;20089;-77
2022/08/31 02:39:49;;;;;;;9.68;6.50;;;;;;;;;;4934458;29;20067;-76
2022/08/31 02:42:14;;;;;;;8.90;6.47;;;;;;;;;;4941151;29;20040;-77
2022/08/31 02:44:40;;;;;;;12.43;6.43;;;;;;;;;;4953801;29;20066;-77
2022/08/31 02:47:06;;;;;;;9.50;6.30;;;;;;;;;;4937928;29;20402;-76
2022/08/31 02:49:39;;;;;;;9.27;6.28;;;;;;;;;;4934250;29;20046;-76
2022/08/31 02:52:05;;;;;;;8.52;5.90;;;;;;;;;;4955040;29;20039;-77
2022/08/31 02:54:30;;;;;;;9.98;6.35;;;;;;;;;;4930041;29;20027;-76
2022/08/31 02:56:56;;;;;;;12.43;6.90;;;;;;;;;;4921618;29;20593;-76
2022/08/31 02:59:21;;;;;;;9.05;6.75;;;;;;;;;;4943907;29;20035;-76
2022/08/31 03:01:47;;;;;;;8.30;6.30;;;;;;;;;;4937022;29;20042;-77
2022/08/31 03:04:15;;;;;;;10.48;7.13;;;;;;;;;;4933566;29;20158;-77
2022/08/31 03:06:41;;;;;;;9.35;6.45;;;;;;;;;;4919458;29;20388;-77
2022/08/31 03:09:07;;;;;;;9.52;6.50;;;;;;;;;;4937337;29;20031;-77
2022/08/31 03:11:33;;;;;;;9.00;6.32;;;;;;;;;;4925939;29;20498;-77
2022/08/31 03:13:58;;;;;;;9.50;5.88;;;;;;;;;;4936267;29;20034;-77
2022/08/31 03:16:24;;;;;;;8.60;6.32;;;;;;;;;;4933770;29;20061;-77
2022/08/31 03:18:50;;;;;;;9.30;6.32;;;;;;;;;;4935366;29;20019;-78
2022/08/31 03:21:15;;;;;;;8.13;6.45;;;;;;;;;;4937231;29;20043;-78
2022/08/31 03:23:41;;;;;;;7.82;6.07;;;;;;;;;;4936579;29;20039;-76
2022/08/31 03:26:06;;;;;;;10.68;6.00;;;;;;;;;;4914269;29;20040;-78
2022/08/31 03:28:33;;;;;;;8.63;6.05;;;;;;;;;;4934341;29;20032;-78
2022/08/31 03:31:19;;;;;;;9.43;5.88;;;;;;;;;;4938845;29;20134;-78
2022/08/31 03:33:45;;;;;;;8.07;5.68;;;;;;;;;;4927460;29;20403;-77
2022/08/31 03:36:10;;;;;;;8.98;5.78;;;;;;;;;;4937029;29;20023;-76
2022/08/31 03:38:36;;;;;;;8.68;6.10;;;;;;;;;;4943649;29;20410;-77
2022/08/31 03:41:02;;;;;;;8.57;5.60;;;;;;;;;;4950803;29;20505;-77
2022/08/31 03:43:31;;;;;;;7.32;5.97;;;;;;;;;;4939951;28;20055;-79
2022/08/31 03:45:57;;;;;;;6.25;5.10;;;;;;;;;;4951424;29;20455;-77
2022/08/31 03:48:23;;;;;;;7.70;5.30;;;;;;;;;;4936753;29;20086;-78
2022/08/31 03:50:49;;;;;;;7.20;4.93;;;;;;;;;;4903670;29;20368;-77
2022/08/31 03:53:21;;;;;;;9.10;5.50;;;;;;;;;;4921909;29;20031;-78
2022/08/31 03:55:46;;;;;;;6.50;4.88;;;;;;;;;;4950155;29;20394;-77
2022/08/31 03:58:12;;;;;;;7.15;4.80;;;;;;;;;;4917462;29;20038;-77
2022/08/31 04:00:37;;;;;;;9.70;5.30;;;;;;;;;;4932446;29;20550;-76
2022/08/31 04:03:12;;;;;;;5.80;4.72;;;;;;;;;;4911310;29;20114;-75
2022/08/31 04:05:58;;;;;;;9.55;4.90;;;;;;;;;;4942548;29;20123;-77
2022/08/31 04:08:42;;;;;;;5.65;4.60;;;;;;;;;;4953912;29;20062;-76
2022/08/31 04:11:43;;;;;;;9.40;4.90;;;;;;;;;;4913763;29;20048;-76
2022/08/31 04:14:27;;;;;;;7.20;4.45;;;;;;;;;;4929254;29;20092;-77
2022/08/31 04:17:24;;;;;;;6.07;4.28;;;;;;;;;;4905768;28;20047;-76
2022/08/31 04:19:58;;;;;;;8.63;4.55;;;;;;;;;;4904384;29;20130;-76
2022/08/31 04:22:38;;;;;;;8.48;4.55;;;;;;;;;;4936507;29;20435;-77
2022/08/31 04:25:24;;;;;;;6.43;4.13;;;;;;;;;;4928324;29;20155;-78
2022/08/31 04:27:53;;;;;;;8.40;4.40;;;;;;;;;;4953677;29;20435;-79
2022/08/31 04:30:20;;;;;;;8.20;4.43;;;;;;;;;;4951732;29;20058;-78
2022/08/31 04:32:46;;;;;;;6.70;4.50;;;;;;;;;;4925809;29;20027;-76
2022/08/31 04:35:12;;;;;;;7.80;4.35;;;;;;;;;;4920180;29;20475;-77
2022/08/31 04:37:40;;;;;;;6.93;4.40;;;;;;;;;;4936381;29;20163;-76
2022/08/31 04:40:06;;;;;;;7.18;4.32;;;;;;;;;;4936070;29;20031;-80
2022/08/31 04:42:35;;;;;;;9.23;3.95;;;;;;;;;;4954683;29;20494;-81
2022/08/31 04:45:01;;;;;;;9.13;4.15;;;;;;;;;;4937645;29;20509;-80
2022/08/31 04:47:27;;;;;;;7.18;3.90;;;;;;;;;;4919542;29;20126;-80
2022/08/31 04:49:53;;;;;;;5.03;4.00;;;;;;;;;;4947259;29;20119;-78
2022/08/31 04:52:18;;;;;;;8.38;4.30;;;;;;;;;;4948350;29;20122;-78
2022/08/31 04:54:44;;;;;;;9.45;4.13;;;;;;;;;;4933857;29;20032;-79
2022/08/31 04:57:09;;;;;;;5.80;3.60;;;;;;;;;;4920910;29;20035;-78
2022/08/31 04:59:35;;;;;;;6.68;3.80;;;;;;;;;;4957112;29;20046;-77
2022/08/31 05:02:26;;;;;;;7.63;3.70;;;;;;;;;;4954319;29;20047;-78
2022/08/31 05:05:00;;;;;;;7.05;3.83;;;;;;;;;;4925010;29;20474;-78
2022/08/31 05:07:26;;;;;;;7.25;3.78;;;;;;;;;;4933169;29;20031;-77
2022/08/31 05:09:54;;;;;;;5.82;3.92;;;;;;;;;;4939780;29;20019;-76
2022/08/31 05:12:21;;;;;;;6.72;4.03;;;;;;;;;;4936858;29;20040;-77
2022/08/31 05:14:47;;;;;;;5.43;3.83;;;;;;;;;;4936822;29;20478;-78
2022/08/31 05:17:20;;;;;;;5.95;4.05;;;;;;;;;;4933529;29;20113;-79
2022/08/31 05:19:46;;;;;;;7.90;3.67;;;;;;;;;;4927954;29;20063;-77
2022/08/31 05:22:14;;;;;;;5.60;3.53;;;;;;;;;;4935756;29;20035;-78
2022/08/31 05:24:42;;;;;;;8.25;3.85;;;;;;;;;;4918613;28;20038;-77
2022/08/31 05:27:08;;;;;;;9.80;3.85;;;;;;;;;;4945866;29;20098;-79
2022/08/31 05:29:34;;;;;;;6.13;3.60;;;;;;;;;;4940737;29;20105;-80
2022/08/31 05:32:22;;;;;;;5.93;3.63;;;;;;;;;;4933744;29;20063;-79
2022/08/31 05:34:49;;;;;;;7.18;3.20;;;;;;;;;;4936433;29;20403;-78
2022/08/31 05:37:14;;;;;;;6.03;3.45;;;;;;;;;;4955666;28;20023;-78
2022/08/31 05:39:40;;;;;;;8.85;3.78;;;;;;;;;;4939229;29;20035;-78
2022/08/31 05:42:06;;;;;;;6.32;3.50;;;;;;;;;;4949930;29;20029;-77
2022/08/31 05:44:35;;;;;;;7.97;3.70;;;;;;;;;;4955892;29;20138;-77
2022/08/31 05:47:04;;;;;;;6.13;4.20;;;;;;;;;;4924763;29;20035;-80
2022/08/31 05:49:30;;;;;;;6.95;4.10;;;;;;;;;;4923659;29;20039;-77
2022/08/31 05:51:57;;;;;;;7.88;3.58;;;;;;;;;;4936581;29;20112;-78
2022/08/31 05:54:23;;;;;;;9.02;3.33;;;;;;;;;;4923567;29;20090;-78
2022/08/31 05:56:49;;;;;;;9.05;3.75;;;;;;;;;;4946027;28;20024;-80
2022/08/31 05:59:14;;;;;;;5.75;3.30;;;;;;;;;;4934709;29;20040;-80
2022/08/31 06:01:41;;;;;;;6.38;3.25;;;;;;;;;;4929899;29;20032;-79
2022/08/31 06:04:12;;;;;;;6.00;3.10;;;;;;;;;;4956137;29;20035;-77
2022/08/31 06:06:38;;;;;;;8.10;3.10;;;;;;;;;;4939151;28;20039;-78
2022/08/31 06:09:04;;;;;;;6.70;2.90;;;;;;;;;;4921482;29;20068;-78
2022/08/31 06:11:30;;;;;;;8.00;3.10;;;;;;;;;;4951857;29;20035;-79
2022/08/31 06:13:56;;;;;;;6.72;3.10;;;;;;;;;;4937706;29;20024;-77
2022/08/31 06:16:22;;;;;;;6.60;3.10;;;;;;;;;;4938937;29;20039;-78
2022/08/31 06:18:49;;;;;;;6.65;3.15;;;;;;;;;;4937194;29;20027;-78
2022/08/31 06:21:19;;;;;;;6.32;3.15;;;;;;;;;;4930895;29;20031;-78
2022/08/31 06:23:46;;;;;;;5.85;2.88;;;;;;;;;;4951738;29;20039;-78
2022/08/31 06:26:14;;;;;;;5.45;3.20;;;;;;;;;;4923106;29;20037;-79
2022/08/31 06:28:41;;;;;;;5.35;2.70;;;;;;;;;;4919408;29;20044;-77
2022/08/31 06:31:15;;;;;;;5.60;2.63;;;;;;;;;;4923598;29;20114;-78
2022/08/31 06:33:41;;;;;;;6.70;2.97;;;;;;;;;;4919775;29;20031;-78
2022/08/31 06:36:15;;;;;;;6.85;2.80;;;;;;;;;;4935220;28;20078;-78
2022/08/31 06:38:56;;;;;;;10.38;2.83;;;;;;;;;;4932574;29;20039;-78
2022/08/31 06:41:35;;;;;;;6.82;3.40;;;;;;;;;;4921208;29;20039;-77
2022/08/31 06:44:21;;;;;;;4.72;2.70;;;;;;;;;;4930102;29;20118;-79
2022/08/31 06:47:07;;;;;;;5.93;2.90;;;;;;;;;;4922566;29;20044;-76
2022/08/31 06:49:37;;;;;;;4.63;3.13;;;;;;;;;;4954144;29;20046;-78
2022/08/31 06:52:02;;;;;;;5.90;3.08;;;;;;;;;;4943845;29;20028;-78
2022/08/31 06:54:30;;;;;;;4.07;2.80;;;;;;;;;;4953983;29;20059;-77
2022/08/31 06:57:14;;;;;;;6.97;2.53;;;;;;;;;;4955780;29;20072;-79
2022/08/31 07:00:00;;;;;;;4.65;2.85;;;;;;;;;;4936243;29;20043;-78
2022/08/31 07:02:48;;;;;;;3.95;2.88;;;;;;;;;;4937665;29;20031;-79
2022/08/31 07:05:14;;;;;;;4.97;2.90;;;;;;;;;;4932508;29;20042;-78
2022/08/31 07:07:40;;;;;;;4.00;2.88;;;;;;;;;;4937944;29;20387;-79
2022/08/31 07:10:09;;;;;;;5.68;2.92;;;;;;;;;;4935019;29;20051;-79
2022/08/31 07:12:34;;;;;;;5.10;3.00;;;;;;;;;;4938073;29;20065;-79
2022/08/31 07:15:00;;;;;;;4.75;3.08;;;;;;;;;;4935707;29;20059;-78
2022/08/31 07:17:26;;;;;;;6.65;2.95;;;;;;;;;;4921019;29;20111;-79
2022/08/31 07:19:52;;;;;;;6.65;2.90;;;;;;;;;;4935620;29;20046;-79
2022/08/31 07:22:18;;;;;;;6.25;2.83;;;;;;;;;;4953537;29;20031;-78
2022/08/31 07:24:48;;;;;;;5.50;2.53;;;;;;;;;;4938388;28;20074;-79
2022/08/31 07:27:15;;;;;;;6.53;2.42;;;;;;;;;;4943438;29;20118;-78
2022/08/31 07:29:51;;;;;;;3.75;2.10;;;;;;;;;;4924512;29;20434;-79
2022/08/31 07:32:18;;;;;;;4.70;3.17;;;;;;;;;;4942162;29;20036;-80
2022/08/31 07:34:44;;;;;;;5.68;2.90;;;;;;;;;;4936453;28;20027;-79
2022/08/31 07:43:13;;;;;;;4.07;1.80;;;;;;;;;;4939916;29;20136;-79
2022/08/31 07:45:39;;;;;;;2.90;1.70;;;;;;;;;;4940918;29;20040;-78
2022/08/31 07:48:05;;;;;;;4.80;1.70;;;;;;;;;;4937616;29;20606;-77
2022/08/31 07:50:49;;;;;;;2.50;1.60;;;;;;;;;;4954061;29;20060;-79
2022/08/31 07:53:14;;;;;;;5.22;1.70;;;;;;;;;;4937803;29;20035;-79
2022/08/31 07:55:54;;;;;;;;;;;;;;;;;;4937696;29;20591;-82
2022/08/31 07:58:30;;;;;;;4.93;2.17;;;;;;;;;;4937779;29;19978;-81
2022/08/31 08:00:58;;;;;;;4.45;1.80;;;;;;;;;;4939517;29;20495;-83
2022/08/31 08:03:24;;;;;;;5.95;1.90;;;;;;;;;;4941384;29;20091;-82
2022/08/31 08:06:11;;;;;;;10.27;1.60;;;;;;;;;;4927916;29;20046;-81
2022/08/31 08:08:54;;;;;;;4.33;1.50;;;;;;;;;;4933406;29;20035;-81
2022/08/31 08:11:36;;;;;;;5.65;1.70;;;;;;;;;;4941471;29;20042;-82
2022/08/31 08:14:34;;;;;;;4.13;1.50;;;;;;;;;;4922931;29;20130;-80
2022/08/31 08:17:08;;;;;;;3.28;1.40;;;;;;;;;;4909050;29;20517;-81
2022/08/31 08:19:57;;;;;;;3.95;1.60;;;;;;;;;;4942880;28;20410;-82
2022/08/31 08:22:23;;;;;;;4.78;1.55;;;;;;;;;;4924304;29;20039;-81
2022/08/31 08:25:23;;;;;;;2.85;1.20;;;;;;;;;;4927044;29;20038;-82
2022/08/31 08:28:16;;;;;;;6.32;1.38;;;;;;;;;;4941606;29;20071;-81
2022/08/31 08:30:43;;;;;;;3.20;1.15;;;;;;;;;;4924490;29;20035;-84
2022/08/31 08:33:09;;;;;;;2.42;1.20;;;;;;;;;;4928432;28;20027;-81
2022/08/31 08:35:35;;;;;;;2.33;1.10;;;;;;;;;;4926186;29;20123;-81
2022/08/31 08:38:01;;;;;;;5.88;1.10;;;;;;;;;;4925124;29;20054;-82
2022/08/31 08:40:41;;;;;;;1.85;1.05;;;;;;;;;;4931517;29;20039;-81
2022/08/31 08:43:08;;;;;;;2.88;1.00;;;;;;;;;;4927501;29;20451;-82
2022/08/31 08:45:34;;;;;;;3.03;1.13;;;;;;;;;;4927702;29;20043;-81
2022/08/31 08:48:03;;;;;;;2.55;1.20;;;;;;;;;;4933833;29;20040;-82
2022/08/31 08:50:29;;;;;;;4.53;1.27;;;;;;;;;;4909380;29;20031;-81
2022/08/31 08:52:55;;;;;;;3.55;1.20;;;;;;;;;;4930574;29;20092;-82
2022/08/31 08:55:24;;;;;;;1.80;0.93;;;;;;;;;;4926807;29;20439;-81
2022/08/31 08:57:54;;;;;;;1.88;1.10;;;;;;;;;;4931577;29;20118;-86
2022/08/31 09:00:23;;;;;;;2.40;0.93;;;;;;;;;;4935007;29;20043;-82
2022/08/31 09:02:57;;;;;;;2.95;1.00;;;;;;;;;;4947705;29;20098;-81
2022/08/31 09:06:06;;;;;;;1.80;0.88;;;;;;;;;;4938243;28;20066;-82
2022/08/31 09:08:53;;;;;;;2.92;0.90;;;;;;;;;;4945594;29;20045;-82
2022/08/31 09:11:21;;;;;;;5.18;0.98;;;;;;;;;;4944811;29;20043;-85
2022/08/31 09:13:47;;;;;;;1.80;0.98;;;;;;;;;;4922774;29;20074;-82
2022/08/31 09:16:19;;;;;;;3.55;1.45;;;;;;;;;;4927333;29;20043;-83
2022/08/31 09:18:51;;;;;;;3.42;1.27;;;;;;;;;;4958206;29;20042;-80
2022/08/31 09:21:24;;;;;;;4.07;1.20;;;;;;;;;;4943952;29;20039;-81
2022/08/31 09:24:00;;;;;;;3.65;0.80;;;;;;;;;;4956248;29;20126;-85
2022/08/31 09:26:31;;;;;;;4.00;0.98;;;;;;;;;;4929338;29;20047;-84
2022/08/31 09:29:07;;;;;;;2.53;0.70;;;;;;;;;;4942061;29;20044;-82
2022/08/31 09:31:36;;;;;;;1.45;0.70;;;;;;;;;;4931436;29;20035;-82
2022/08/31 09:34:02;;;;;;;1.92;0.90;;;;;;;;;;4936952;29;20083;-83
2022/08/31 09:36:32;;;;;;;3.60;0.95;;;;;;;;;;4948502;29;20450;-82
2022/08/31 09:39:21;;;;;;;1.95;1.10;;;;;;;;;;4930965;29;20066;-81
2022/08/31 09:41:47;;;;;;;1.90;0.90;;;;;;;;;;4947131;28;20176;-81
2022/08/31 09:44:30;;;;;;;1.92;1.00;;;;;;;;;;4929454;28;20058;-82
2022/08/31 09:47:02;;;;;;;1.98;1.33;;;;;;;;;;4937440;29;20039;-84
2022/08/31 09:49:32;;;;;;;2.42;1.20;;;;;;;;;;4932636;29;20031;-83
2022/08/31 09:52:17;;;;;;;2.47;1.33;;;;;;;;;;4945317;29;20050;-82
2022/08/31 09:57:42;;;;;;;3.03;1.20;;;;;;;;;;4952218;29;20035;-81
2022/08/31 10:00:12;;;;;;;1.80;1.08;;;;;;;;;;4927495;29;20059;-81
2022/08/31 10:02:37;;;;;;;2.13;1.30;;;;;;;;;;4944733;29;20051;-83
2022/08/31 10:05:05;;;;;;;2.55;1.15;;;;;;;;;;4921254;29;20106;-83
2022/08/31 10:07:36;;;;;;;4.00;1.08;;;;;;;;;;4943161;29;20025;-81
2022/08/31 10:10:10;;;;;;;3.50;1.48;;;;;;;;;;4941826;29;20063;-81
2022/08/31 10:12:44;;;;;;;3.58;1.38;;;;;;;;;;4944927;29;20413;-80
2022/08/31 10:15:15;;;;;;;5.55;1.33;;;;;;;;;;4944739;29;20040;-83
2022/08/31 10:17:44;;;;;;;2.78;1.02;;;;;;;;;;4940371;29;20036;-82
2022/08/31 10:20:15;;;;;;;4.43;1.10;;;;;;;;;;4939325;29;20031;-80
2022/08/31 10:22:45;;;;;;;5.57;1.30;;;;;;;;;;4945365;29;20122;-83
2022/08/31 10:25:14;;;;;;;8.07;1.10;;;;;;;;;;4930434;29;20772;-82
2022/08/31 10:27:47;;;;;;;2.28;0.80;;;;;;;;;;4963792;29;20039;-84
2022/08/31 10:30:21;;;;;;;1.80;1.10;;;;;;;;;;4963135;29;20565;-82
2022/08/31 10:32:58;;;;;;;2.85;1.10;;;;;;;;;;4916343;29;20032;-81
2022/08/31 10:35:36;;;;;;;1.88;1.10;;;;;;;;;;4945093;29;20035;-81
2022/08/31 10:38:07;;;;;;;2.85;1.10;;;;;;;;;;4942113;29;20035;-81
2022/08/31 10:40:43;;;;;;;2.33;1.10;;;;;;;;;;4961759;29;20039;-84
2022/08/31 10:43:12;;;;;;;5.15;0.88;;;;;;;;;;4926728;29;20462;-82
2022/08/31 10:45:40;;;;;;;5.80;0.90;;;;;;;;;;4924386;29;20047;-81
2022/08/31 10:48:05;;;;;;;6.60;0.88;;;;;;;;;;4923614;29;20040;-81
2022/08/31 10:50:31;;;;;;;9.80;1.38;;;;;;;;;;4954447;29;20450;-86
2022/08/31 10:53:04;;;;;;;3.65;0.70;;;;;;;;;;4942322;29;20036;-82
2022/08/31 10:55:36;;;;;;;10.50;2.35;;;;;;;;;;4934298;29;20031;-82
2022/08/31 10:58:20;;;;;;;5.75;0.80;;;;;;;;;;4954875;29;20038;-81
2022/08/31 11:00:54;;;;;;;5.15;0.80;;;;;;;;;;4941488;29;20502;-79
2022/08/31 11:03:38;;;;;;;1.20;0.75;;;;;;;;;;4940930;29;20039;-83
2022/08/31 11:06:15;;;;;;;1.77;0.70;;;;;;;;;;4947493;29;20035;-82
2022/08/31 11:08:48;;;;;;;8.25;1.00;;;;;;;;;;4929370;29;20054;-81
2022/08/31 11:11:34;;;;;;;3.13;0.60;;;;;;;;;;4921013;29;20078;-81
2022/08/31 11:14:19;;;;;;;1.45;0.50;;;;;;;;;;4923831;29;20051;-81
2022/08/31 11:17:03;;;;;;;2.15;0.65;;;;;;;;;;4927756;29;20124;-80
2022/08/31 11:19:36;;;;;;;2.97;0.60;;;;;;;;;;4940767;29;20087;-84
2022/08/31 11:22:27;;;;;;;3.60;0.50;;;;;;;;;;4940176;29;20034;-83
2022/08/31 11:25:13;;;;;;;2.13;0.50;;;;;;;;;;4940321;29;20036;-80
2022/08/31 11:27:39;;;;;;;;;;;;;;;;;;4938128;29;20035;-85
2022/08/31 11:30:26;;;;;;;1.57;0.57;;;;;;;;;;4937609;29;19977;-82
2022/08/31 11:32:53;;;;;;;0.77;0.40;;;;;;;;;;4958771;28;20402;-83
2022/08/31 11:35:39;;;;;;;3.30;0.68;;;;;;;;;;4925872;29;20486;-87
2022/08/31 11:38:04;;;;;;;4.40;1.05;;;;;;;;;;4950492;29;20108;-84
2022/08/31 11:40:40;;;;;;;3.80;0.70;;;;;;;;;;4957295;29;20039;-85
2022/08/31 11:43:07;;;;;;;1.90;0.50;;;;;;;;;;4961849;29;20110;-87
2022/08/31 11:45:36;;;;;;;0.93;0.50;;;;;;;;;;4943106;29;20043;-79
2022/08/31 12:42:04;;;;;;;5.40;1.02;;;;;;;;;;6233427;22;20027;-88
2022/08/31 12:47:55;;;;;;;4.00;0.60;;;;;;;;;;6252837;22;20034;-91
2022/08/31 12:53:29;;;;;;;1.25;0.70;;;;;;;;;;6266540;22;20010;-89
2022/08/31 12:56:06;;;;;;;2.47;0.73;;;;;;;;;;6285687;22;20012;-91
2022/08/31 13:06:43;;;;;;;4.22;0.57;;;;;;;;;;6237804;22;20064;-87
2022/08/31 13:12:23;;;;;;;2.85;0.55;;;;;;;;;;6254723;22;20035;-89
2022/08/31 13:14:52;;;;;;;1.48;0.35;;;;;;;;;;6264192;22;20024;-90
2022/08/31 13:17:23;;;;;;;4.95;0.55;;;;;;;;;;6207838;23;20025;-89
2022/08/31 13:19:52;;;;;;;2.30;0.50;;;;;;;;;;6217480;23;20013;-91
2022/08/31 13:22:24;;;;;;;2.90;0.30;;;;;;;;;;6217647;23;19976;-90
2022/08/31 13:24:51;;;;;;;2.70;0.50;;;;;;;;;;6216073;23;20016;-90
2022/08/31 13:38:50;;;;;;;2.25;0.50;;;;;;;;;;6213944;23;20032;-92
2022/08/31 13:44:42;;;;;;;2.10;0.57;;;;;;;;;;6238918;22;20380;-91
2022/08/31 13:49:44;;;;;;;0.63;0.40;;;;;;;;;;6298975;22;20471;-90
2022/08/31 13:52:14;;;;;;;1.65;0.52;;;;;;;;;;6222765;22;20019;-89
2022/08/31 13:54:40;;;;;;;2.70;0.47;;;;;;;;;;6178540;22;20023;-89
2022/08/31 14:00:41;;;;;;;4.17;0.77;;;;;;;;;;6242552;22;20030;-90
2022/08/31 14:03:29;;;;;;;1.35;0.40;;;;;;;;;;6208529;23;20144;-86
2022/08/31 14:06:15;;;;;;;2.08;0.40;;;;;;;;;;6158742;23;19997;-89
2022/08/31 14:08:45;;;;;;;2.33;0.50;;;;;;;;;;6277374;22;20061;-89
2022/08/31 14:11:14;;;;;;;1.45;0.40;;;;;;;;;;6270781;22;19996;-89
2022/08/31 14:13:46;;;;;;;1.45;0.32;;;;;;;;;;6274995;22;20023;-92
2022/08/31 14:16:15;;;;;;;2.05;0.40;;;;;;;;;;6275214;22;20015;-89
2022/08/31 14:18:41;;;;;;;1.33;0.50;;;;;;;;;;6248708;22;20031;-90
2022/08/31 14:21:10;;;;;;;2.33;0.47;;;;;;;;;;6246671;22;20015;-88
2022/08/31 14:23:40;;;;;;;2.08;0.50;;;;;;;;;;6298165;22;20069;-88
2022/08/31 14:26:06;;;;;;;2.47;0.50;;;;;;;;;;6250300;22;20008;-88
2022/08/31 14:28:39;;;;;;;1.92;0.52;;;;;;;;;;6299660;22;20047;-89
2022/08/31 14:33:56;;;;;;;4.10;0.52;;;;;;;;;;6270086;22;19920;-89
2022/08/31 14:36:23;;;;;;;1.80;0.30;;;;;;;;;;6220626;23;20012;-89
2022/08/31 14:38:57;;;;;;;2.95;0.55;;;;;;;;;;6186929;23;20022;-89
2022/08/31 14:41:26;;;;;;;0.55;0.45;;;;;;;;;;6189102;23;20017;-89
2022/08/31 14:43:54;;;;;;;4.18;0.45;;;;;;;;;;6191112;23;20009;-88
2022/08/31 14:48:56;;;;;;;1.05;0.40;;;;;;;;;;6269308;22;20004;-89
2022/08/31 14:54:10;;;;;;;2.15;0.50;;;;;;;;;;6240353;22;20035;-91
2022/08/31 14:56:44;;;;;;;1.85;0.47;;;;;;;;;;6232202;22;20075;-90
2022/08/31 14:59:16;;;;;;;3.78;0.57;;;;;;;;;;6239361;22;20030;-88
2022/08/31 15:07:20;;;;;;;1.67;0.50;;;;;;;;;;6284690;22;20027;-89
2022/08/31 15:12:34;;;;;;;1.67;0.43;;;;;;;;;;6256400;22;20035;-90
2022/08/31 15:15:33;;;;;;;1.60;0.57;;;;;;;;;;6213259;22;20067;-88
2022/08/31 15:23:23;;;;;;;1.88;0.47;;;;;;;;;;6219668;22;20029;-90
2022/08/31 15:25:49;;;;;;;2.15;0.60;;;;;;;;;;6179470;23;20024;-88
2022/08/31 15:28:17;;;;;;;1.77;0.60;;;;;;;;;;6153211;23;20049;-89
2022/08/31 15:41:30;;;;;;;2.58;0.65;;;;;;;;;;6200681;23;20377;-89
2022/08/31 15:52:29;;;;;;;1.63;0.40;;;;;;;;;;6204606;22;20011;-89
2022/08/31 15:55:06;;;;;;;1.17;0.38;;;;;;;;;;6192365;23;20520;-89
2022/08/31 15:57:59;;;;;;;1.38;0.40;;;;;;;;;;6244173;22;19996;-89
2022/08/31 16:00:31;;;;;;;1.80;0.45;;;;;;;;;;6262396;22;19996;-92
2022/08/31 16:06:20;;;;;;;0.95;0.40;;;;;;;;;;6263787;22;20009;-92
2022/08/31 16:14:02;;;;;;;2.03;0.60;;;;;;;;;;6221676;22;20039;-88
2022/08/31 16:16:31;;;;;;;2.05;0.70;;;;;;;;;;6186618;23;19989;-88
2022/08/31 16:18:57;;;;;;;2.65;0.80;;;;;;;;;;6185562;23;20005;-90
2022/08/31 16:21:24;;;;;;;1.08;0.60;;;;;;;;;;6161370;23;20016;-88
2022/08/31 16:23:50;;;;;;;2.25;0.60;;;;;;;;;;6160943;23;19981;-88
2022/08/31 16:26:18;;;;;;;3.13;0.50;;;;;;;;;;6158379;23;20008;-86
2022/08/31 16:28:44;;;;;;;1.13;0.50;;;;;;;;;;6182607;23;20004;-88
2022/08/31 16:31:11;;;;;;;0.88;0.50;;;;;;;;;;6161505;23;19988;-87
2022/08/31 16:33:40;;;;;;;3.28;0.70;;;;;;;;;;6184330;23;20001;-88
2022/08/31 16:38:42;;;;;;;;;;;;;;;;;;6174421;23;20025;-89
2022/08/31 16:41:09;;;;;;;2.77;0.90;;;;;;;;;;6142342;23;19909;-88
2022/08/31 16:43:38;;;;;;;2.88;0.80;;;;;;;;;;6123856;23;19998;-90
2022/08/31 16:46:05;;;;;;;1.58;0.80;;;;;;;;;;6121003;23;20005;-88
2022/08/31 16:51:18;;;;;;;3.13;1.00;;;;;;;;;;6146860;23;20010;-88
2022/08/31 16:53:46;;;;;;;3.63;1.02;;;;;;;;;;6147760;23;20006;-87
2022/08/31 16:56:18;;;;;;;2.55;0.70;;;;;;;;;;6134951;23;20025;-87
2022/08/31 16:58:44;;;;;;;3.50;0.50;;;;;;;;;;6179247;23;20017;-87
2022/08/31 17:01:12;;;;;;;1.23;0.50;;;;;;;;;;6181223;23;20072;-87
2022/08/31 17:03:41;;;;;;;0.90;0.40;;;;;;;;;;6158498;23;20448;-89
2022/08/31 17:06:07;;;;;;;1.70;0.60;;;;;;;;;;6157310;23;20354;-91
2022/08/31 17:08:35;;;;;;;1.33;0.55;;;;;;;;;;6158399;23;20013;-88
2022/08/31 17:11:10;;;;;;;1.05;0.50;;;;;;;;;;6181652;23;20020;-89
2022/08/31 17:13:35;;;;;;;2.72;0.50;;;;;;;;;;6180974;23;20032;-89
2022/08/31 17:16:01;;;;;;;1.35;0.55;;;;;;;;;;6156378;23;20028;-89
2022/08/31 17:18:30;;;;;;;1.23;0.63;;;;;;;;;;6159624;23;20005;-90
2022/08/31 17:20:59;;;;;;;0.82;0.50;;;;;;;;;;6210197;23;20013;-88
2022/08/31 17:23:25;;;;;;;1.60;0.60;;;;;;;;;;6156187;23;20009;-83
2022/08/31 17:25:51;;;;;;;0.88;0.60;;;;;;;;;;6162280;23;20039;-79
2022/08/31 17:28:21;;;;;;;2.58;0.70;;;;;;;;;;6185271;23;20017;-79
2022/08/31 17:30:46;;;;;;;2.75;0.70;;;;;;;;;;6185562;23;20013;-79
2022/08/31 17:33:12;;;;;;;2.35;0.80;;;;;;;;;;6135985;23;20080;-78
2022/08/31 17:35:41;;;;;;;1.20;0.80;;;;;;;;;;6187079;23;20013;-79
2022/08/31 17:38:06;;;;;;;2.53;0.70;;;;;;;;;;6160208;23;20016;-79
2022/08/31 17:40:32;;;;;;;2.72;0.80;;;;;;;;;;6161202;23;20003;-78